createdAt,value
2023-05-14T00:02:55.498Z,7.20
2023-05-14T00:08:05.564Z,7.40
2023-05-14T00:13:15.246Z,7.60
2023-05-14T00:18:25.108Z,7.70
2023-05-14T00:23:36.783Z,6.90
2023-05-14T00:28:46.620Z,8.00
2023-05-14T00:33:56.230Z,6.50
2023-05-14T00:39:05.981Z,7.00
2023-05-14T00:44:16.148Z,6.30
2023-05-14T00:49:26.790Z,6.70
2023-05-14T00:54:37.655Z,7.20
2023-05-14T00:59:47.542Z,6.80
2023-05-14T01:04:58.508Z,7.60
2023-05-14T01:10:16.495Z,6.80
2023-05-14T01:15:30.427Z,7.20
2023-05-14T01:20:40.219Z,7.10
2023-05-14T01:25:49.997Z,6.50
2023-05-14T01:31:08.404Z,6.40
2023-05-14T01:36:18.678Z,7.00
2023-05-14T01:41:31.185Z,7.00
2023-05-14T01:46:41.274Z,7.30
2023-05-14T01:51:51.412Z,6.70
2023-05-14T01:57:01.318Z,7.50
2023-05-14T02:02:10.963Z,6.70
2023-05-14T02:07:21.087Z,6.60
2023-05-14T02:12:30.864Z,7.40
2023-05-14T02:17:40.550Z,6.50
2023-05-14T02:22:50.369Z,7.60
2023-05-14T02:27:59.851Z,5.80
2023-05-14T02:33:10.060Z,6.90
2023-05-14T02:38:20.128Z,6.90
2023-05-14T02:43:30.129Z,6.60
2023-05-14T02:48:40.024Z,6.60
2023-05-14T02:53:49.877Z,6.40
2023-05-14T02:58:59.436Z,6.30
2023-05-14T03:04:10.113Z,6.00
2023-05-14T03:09:20.234Z,6.30
2023-05-14T03:14:29.936Z,7.30
2023-05-14T03:19:39.640Z,6.80
2023-05-14T03:24:49.748Z,7.10
2023-05-14T03:29:59.489Z,6.30
2023-05-14T03:35:10.948Z,6.60
2023-05-14T03:40:21.827Z,7.00
2023-05-14T03:45:31.923Z,7.30
2023-05-14T03:50:41.949Z,6.50
2023-05-14T03:55:51.864Z,6.40
2023-05-14T04:01:01.819Z,8.70
2023-05-14T04:06:12.351Z,8.20
2023-05-14T04:11:22.183Z,8.70
2023-05-14T04:16:32.280Z,8.80
2023-05-14T04:21:41.958Z,8.30
2023-05-14T04:26:51.829Z,8.70
2023-05-14T04:32:01.598Z,8.50
2023-05-14T04:37:12.186Z,9.90
2023-05-14T04:42:21.842Z,8.70
2023-05-14T04:47:31.957Z,8.80
2023-05-14T04:52:42.114Z,7.50
2023-05-14T04:57:52.024Z,8.40
2023-05-14T05:03:02.246Z,8.10
2023-05-14T05:08:12.863Z,7.80
2023-05-14T05:13:22.657Z,7.80
2023-05-14T05:18:32.637Z,7.90
2023-05-14T05:23:42.286Z,7.30
2023-05-14T05:28:51.938Z,7.70
2023-05-14T05:34:02.621Z,7.40
2023-05-14T05:39:12.475Z,7.10
2023-05-14T05:44:22.743Z,7.20
2023-05-14T05:49:32.411Z,7.40
2023-05-14T05:54:42.029Z,6.70
2023-05-14T05:59:51.617Z,7.10
2023-05-14T06:05:01.321Z,7.20
2023-05-14T06:10:13.060Z,6.60
2023-05-14T06:15:24.700Z,7.10
2023-05-14T06:20:34.651Z,6.70
2023-05-14T06:25:44.653Z,6.90
2023-05-14T06:30:56.206Z,7.00
2023-05-14T06:36:08.348Z,7.10
2023-05-14T06:41:18.540Z,5.90
2023-05-14T06:46:28.438Z,6.00
2023-05-14T06:51:39.340Z,6.10
2023-05-14T06:56:48.946Z,6.40
2023-05-14T07:01:58.758Z,5.60
2023-05-14T07:07:11.015Z,5.20
2023-05-14T07:12:20.777Z,5.20
2023-05-14T07:17:30.915Z,5.60
2023-05-14T07:22:40.674Z,5.50
2023-05-14T07:27:50.497Z,4.50
2023-05-14T07:33:00.292Z,4.60
2023-05-14T07:38:10.095Z,4.00
2023-05-14T07:43:19.561Z,3.70
2023-05-14T07:48:29.323Z,4.30
2023-05-14T07:53:39.080Z,3.90
2023-05-14T07:58:49.074Z,3.90
2023-05-14T08:03:59.267Z,3.10
2023-05-14T08:09:09.017Z,3.70
2023-05-14T08:14:18.574Z,3.50
2023-05-14T08:19:28.912Z,3.50
2023-05-14T08:24:39.211Z,4.10
2023-05-14T08:29:49.078Z,3.10
2023-05-14T08:34:58.934Z,3.40
2023-05-14T08:40:10.970Z,3.40
2023-05-14T08:45:26.441Z,2.80
2023-05-14T08:50:36.309Z,3.10
2023-05-14T08:55:48.328Z,3.20
2023-05-14T09:00:59.339Z,3.50
2023-05-14T09:06:10.581Z,3.20
2023-05-14T09:11:20.678Z,3.00
2023-05-14T09:16:31.461Z,2.90
2023-05-14T09:21:42.132Z,2.70
2023-05-14T09:26:56.485Z,2.60
2023-05-14T09:32:08.607Z,3.00
2023-05-14T09:37:18.237Z,3.00
2023-05-14T09:42:28.105Z,2.60
2023-05-14T09:47:37.878Z,3.10
2023-05-14T09:52:47.536Z,2.10
2023-05-14T09:57:57.444Z,2.90
2023-05-14T10:03:10.622Z,2.60
2023-05-14T10:08:28.729Z,2.40
2023-05-14T10:13:48.257Z,2.60
2023-05-14T10:19:07.532Z,2.40
2023-05-14T10:24:17.922Z,2.60
2023-05-14T10:29:37.834Z,2.60
2023-05-14T10:34:48.597Z,2.50
2023-05-14T10:40:03.232Z,2.30
2023-05-14T10:45:16.612Z,2.50
2023-05-14T10:50:26.486Z,2.70
2023-05-14T10:55:36.751Z,3.00
2023-05-14T11:00:49.088Z,3.20
2023-05-14T11:06:01.098Z,2.30
2023-05-14T11:11:12.233Z,2.90
2023-05-14T11:16:24.417Z,3.00
2023-05-14T11:21:34.756Z,3.00
2023-05-14T11:26:44.971Z,2.50
2023-05-14T11:31:56.032Z,2.00
2023-05-14T11:37:08.993Z,2.50
2023-05-14T11:42:20.045Z,2.70
2023-05-14T11:47:30.975Z,2.90
2023-05-14T11:52:44.369Z,2.90
2023-05-14T11:57:54.600Z,2.40
2023-05-14T12:03:04.504Z,3.00
2023-05-14T12:08:28.065Z,2.90
2023-05-14T12:13:38.060Z,3.20
2023-05-14T12:18:47.853Z,2.90
2023-05-14T12:24:03.871Z,3.00
2023-05-14T12:29:16.391Z,2.50
2023-05-14T12:34:25.880Z,3.00
2023-05-14T12:39:37.228Z,3.10
2023-05-14T12:44:46.815Z,2.60
2023-05-14T12:49:56.480Z,2.20
2023-05-14T12:55:06.871Z,2.20
2023-05-14T13:00:19.412Z,2.20
2023-05-14T13:05:29.327Z,2.10
2023-05-14T13:10:39.129Z,2.60
2023-05-14T13:15:49.242Z,3.00
2023-05-14T13:20:59.066Z,2.90
2023-05-14T13:26:08.688Z,2.40
2023-05-14T13:31:18.895Z,2.60
2023-05-14T13:36:28.973Z,2.50
2023-05-14T13:41:39.521Z,2.20
2023-05-14T13:46:49.160Z,2.70
2023-05-14T13:51:58.752Z,2.30
2023-05-14T13:57:09.295Z,2.10
2023-05-14T14:02:19.900Z,2.60
2023-05-14T14:07:29.593Z,2.30
2023-05-14T14:12:39.486Z,2.10
2023-05-14T14:17:49.499Z,2.10
2023-05-14T14:22:59.494Z,2.50
2023-05-14T14:28:09.228Z,1.90
2023-05-14T14:33:19.029Z,2.10
2023-05-14T14:38:29.717Z,2.10
2023-05-14T14:43:40.603Z,2.10
2023-05-14T14:48:50.958Z,2.00
2023-05-14T14:54:00.692Z,2.10
2023-05-14T14:59:10.308Z,2.10
2023-05-14T15:04:19.951Z,2.30
2023-05-14T15:09:29.886Z,2.30
2023-05-14T15:14:39.838Z,2.40
2023-05-14T15:19:49.449Z,4.40
2023-05-14T15:24:59.253Z,1.80
2023-05-14T15:30:11.750Z,1.80
2023-05-14T15:35:21.416Z,2.10
2023-05-14T15:40:31.887Z,2.10
2023-05-14T15:45:41.590Z,3.40
2023-05-14T15:50:53.061Z,2.50
2023-05-14T15:56:02.862Z,2.40
2023-05-14T16:01:12.542Z,2.30
2023-05-14T16:06:22.515Z,2.30
2023-05-14T16:11:32.400Z,2.00
2023-05-14T16:16:42.917Z,2.30
2023-05-14T16:21:52.532Z,1.90
2023-05-14T16:27:02.458Z,2.10
2023-05-14T16:32:12.700Z,2.10
2023-05-14T16:37:22.779Z,2.30
2023-05-14T16:42:32.434Z,2.50
2023-05-14T16:47:42.135Z,2.10
2023-05-14T16:52:51.839Z,2.30
2023-05-14T16:58:01.446Z,2.30
2023-05-14T17:03:11.081Z,2.80
2023-05-14T17:08:20.795Z,2.30
2023-05-14T17:13:30.440Z,2.60
2023-05-14T17:18:57.250Z,2.70
2023-05-14T17:24:07.501Z,2.40
2023-05-14T17:29:17.160Z,3.00
2023-05-14T17:34:27.003Z,2.60
2023-05-14T17:39:37.024Z,2.30
2023-05-14T17:44:46.596Z,2.90
2023-05-14T17:49:56.645Z,2.20
2023-05-14T17:55:07.116Z,2.60
2023-05-14T18:00:19.372Z,2.90
2023-05-14T18:05:30.244Z,2.30
2023-05-14T18:10:40.166Z,2.90
2023-05-14T18:15:52.031Z,2.80
2023-05-14T18:21:02.174Z,3.50
2023-05-14T18:26:12.154Z,3.70
2023-05-14T18:31:21.802Z,3.40
2023-05-14T18:36:31.945Z,4.20
2023-05-14T18:41:41.557Z,5.20
2023-05-14T18:46:51.642Z,4.90
2023-05-14T18:52:01.159Z,5.00
2023-05-14T18:57:11.686Z,5.80
2023-05-14T19:02:21.783Z,6.40
2023-05-14T19:07:32.487Z,6.70
2023-05-14T19:12:42.328Z,6.70
2023-05-14T19:17:52.493Z,9.20
2023-05-14T19:23:02.301Z,6.60
2023-05-14T19:28:11.930Z,7.70
2023-05-14T19:33:21.451Z,5.80
2023-05-14T19:38:31.337Z,5.40
2023-05-14T19:43:40.937Z,5.80
2023-05-14T19:48:50.612Z,7.20
2023-05-14T19:54:00.183Z,6.60
2023-05-14T19:59:09.823Z,7.70
2023-05-14T20:04:20.066Z,7.70
2023-05-14T20:09:29.849Z,7.60
2023-05-14T20:14:41.268Z,10.10
2023-05-14T20:19:50.864Z,9.40
2023-05-14T20:25:00.907Z,10.10
2023-05-14T20:30:12.839Z,9.80
2023-05-14T20:35:23.570Z,6.80
2023-05-14T20:40:33.482Z,5.50
2023-05-14T20:45:43.764Z,5.70
2023-05-14T20:50:53.411Z,6.00
2023-05-14T20:56:03.169Z,5.90
2023-05-14T21:01:12.729Z,4.80
2023-05-14T21:06:22.493Z,4.70
2023-05-14T21:11:32.075Z,5.90
2023-05-14T21:16:42.419Z,8.10
2023-05-14T21:21:51.976Z,5.80
2023-05-14T21:27:01.753Z,5.60
2023-05-14T21:32:12.340Z,7.90
2023-05-14T21:37:22.151Z,7.20
2023-05-14T21:42:31.844Z,7.20
2023-05-14T21:47:42.473Z,8.20
2023-05-14T21:52:52.098Z,7.50
2023-05-14T21:58:02.881Z,8.10
2023-05-14T22:03:12.657Z,8.10
2023-05-14T22:08:22.574Z,8.30
2023-05-14T22:13:32.358Z,7.30
2023-05-14T22:18:42.893Z,7.20
2023-05-14T22:23:52.485Z,7.80
2023-05-14T22:29:02.842Z,7.40
2023-05-14T22:34:12.518Z,6.20
2023-05-14T22:39:22.309Z,5.70
2023-05-14T22:44:31.803Z,4.90
2023-05-14T22:49:43.182Z,6.10
2023-05-14T22:54:53.499Z,7.70
2023-05-14T23:00:04.424Z,7.70
2023-05-14T23:05:15.037Z,7.90
2023-05-14T23:10:24.948Z,5.90
2023-05-14T23:15:34.666Z,6.40
2023-05-14T23:20:44.278Z,5.20
2023-05-14T23:25:56.294Z,5.60
2023-05-14T23:31:06.182Z,5.50
2023-05-14T23:36:16.668Z,6.60
2023-05-14T23:41:26.302Z,5.20
2023-05-14T23:46:35.919Z,5.60
2023-05-14T23:51:46.292Z,6.00
2023-05-14T23:56:55.976Z,5.40
